West Newbury, VT (05085)

7:29 PM EST on February 11, 2016 (GMT -0500)
Goshen Heights | | Change Station
CLOSE
Current Station
Personal Weather Station
Location: Bradford, VT
Elevation: 1060 ft
Nearby Weather Stations
Active Advisory: Wind Chill Watch

Elev 1060 ft 44.01 °N, 72.14 °W | Updated 3 seconds ago

Mostly Cloudy
Mostly Cloudy
2.6 °F
Feels Like 3 °F
N
0.0
Wind Variable Wind from NNW
Gusts 0.0 mph

Today
High -- | Low -- °F
--% Chance of Precip.
Yesterday
High -- | Low -- °F
Precip. -- in
Pressure 29.91 in
Visibility 3.0 miles
Clouds Overcast 1700 ft
Windchill 3 °F
Dew Point -5 °F
Humidity 70%
Rainfall 0.00 in
Snow Depth Not available.
6:54 AM 5:11 PM
Waxing Crescent, 15% visible
SPECI KMPV 120001Z AUTO 31011G21KT 3SM -SN OVC017 M17/M21 A2991 RMK AO2 P0000 T11671206
Pressure 29.91 in
Visibility 3.0 miles
Clouds Overcast 1700 ft
Windchill 3 °F
Dew Point -5 °F
Humidity 70%
Rainfall 0.00 in
Snow Depth Not available.
6:54 AM 5:11 PM
Waxing Crescent, 15% visible
SPECI KMPV 120001Z AUTO 31011G21KT 3SM -SN OVC017 M17/M21 A2991 RMK AO2 P0000 T11671206

10-Day Weather Forecast

Almanac

Astronomy

Feb. 11, 2016 Rise Set
Actual Time
Civil Twilight
Nautical Twilight
Astronomical Twilight
Moon
Length of Visible Light
Length of Day
Tomorrow will be .
, % of the Moon is Illuminated

Today's Extremes

State Highs State Lows

Community

WunderPhotos

Upload Photos

1,892,191 photos uploaded!

WunderBlog® & News

Nearby

Air Quality

  Air Quality AQ Index Pollutant
Not available.

Snow Depth

Station Depth Elevation

Earthquake Activity

City Distance Mag. Time & Date
Minimum magnitude displayed is 2.5.

Coastal Water Temperatures

Place Temperature

Stations

Nearby Weather Stations

Station Location Temp. Windchill Dew Point Humidity Wind Precip. Elev Updated Type
                   

Watches & Warnings

Wind Chill Watch
Issued: 3:06 PM EST Feb. 11, 2016 – National Weather Service

... Wind chill watch in effect from late Friday night through
Sunday evening...

The National Weather Service in Burlington has issued a wind
chill watch... which is in effect from late Friday night through
Sunday evening.

* Locations... all of northern New York... as well as central and
northern Vermont.

* Hazard types... dangerously low wind chill values.

* Wind chill readings... potentially 25 to 40 below at times
Saturday... Saturday night... and into Sunday... with northwest
winds 10 to 20 mph with gusts up to 25 mph.

* Timing... all weekend.

* Impacts... potential frostbite and hypothermia.

Precautionary/preparedness actions...

A wind chill watch means the there is the potential for a
combination of very cold air and strong winds to create
dangerously low wind chill values. Monitor the latest forecasts
and warnings for updates on this situation.

Please stay tuned to NOAA Weather Radio... your local media... or
go to www.Weather.Gov/Burlington for further updates on this
weather situation.



Banacos